createdAt,value
2023-03-13T00:00:25.689Z,100106.97
2023-03-13T00:03:14.824Z,100106.44
2023-03-13T00:06:01.209Z,100110.81
2023-03-13T00:08:47.916Z,100105.63
2023-03-13T00:11:34.858Z,100116.78
2023-03-13T00:14:21.274Z,100101.41
2023-03-13T00:17:09.455Z,100102.38
2023-03-13T00:19:56.096Z,100073.75
2023-03-13T00:22:42.737Z,100092.41
2023-03-13T00:25:29.395Z,100091.59
2023-03-13T00:28:16.142Z,100087.94
2023-03-13T00:31:04.207Z,100079.13
2023-03-13T00:33:53.861Z,100083.59
2023-03-13T00:36:40.990Z,100082.47
2023-03-13T00:39:27.490Z,100072.41
2023-03-13T00:42:14.320Z,100075.50
2023-03-13T00:45:01.141Z,100070.38
2023-03-13T00:47:50.097Z,100077.06
2023-03-13T00:50:38.028Z,100071.19
2023-03-13T00:53:24.881Z,100062.25
2023-03-13T00:56:13.244Z,100059.28
2023-03-13T00:59:01.656Z,100058.06
2023-03-13T01:01:48.926Z,100049.38
2023-03-13T01:04:35.533Z,100053.47
2023-03-13T01:07:23.745Z,100047.13
2023-03-13T01:10:11.573Z,100052.41
2023-03-13T01:12:58.488Z,100049.41
2023-03-13T01:15:45.134Z,100049.34
2023-03-13T01:18:32.143Z,100026.50
2023-03-13T01:21:22.375Z,100040.47
2023-03-13T01:24:11.298Z,100041.28
2023-03-13T01:26:57.943Z,100040.78
2023-03-13T01:29:44.619Z,100043.44
2023-03-13T01:32:34.594Z,100038.16
2023-03-13T01:35:22.502Z,100043.31
2023-03-13T01:38:09.536Z,100042.63
2023-03-13T01:40:58.098Z,100037.94
2023-03-13T01:43:45.699Z,100011.34
2023-03-13T01:46:32.818Z,100041.22
2023-03-13T01:49:25.300Z,100034.31
2023-03-13T01:52:24.853Z,100021.38
2023-03-13T01:55:22.343Z,100015.50
2023-03-13T01:58:13.022Z,100015.41
2023-03-13T02:01:00.635Z,100012.81
2023-03-13T02:03:48.288Z,100004.38
2023-03-13T02:06:40.039Z,100009.78
2023-03-13T02:09:31.298Z,100009.44
2023-03-13T02:12:26.836Z,100001.69
2023-03-13T02:15:17.515Z,99997.25
2023-03-13T02:18:05.220Z,99996.91
2023-03-13T02:20:57.783Z,99978.59
2023-03-13T02:23:54.486Z,99984.06
2023-03-13T02:26:42.483Z,99982.72
2023-03-13T02:29:29.272Z,99976.53
2023-03-13T02:32:16.634Z,99966.66
2023-03-13T02:35:07.801Z,99963.16
2023-03-13T02:37:58.286Z,99962.75
2023-03-13T02:40:48.157Z,99965.97
2023-03-13T02:43:38.023Z,99964.59
2023-03-13T02:46:25.989Z,99970.03
2023-03-13T02:49:22.238Z,99962.88
2023-03-13T02:52:15.281Z,99958.44
2023-03-13T02:55:10.055Z,99941.91
2023-03-13T02:57:56.709Z,99943.28
2023-03-13T03:00:44.796Z,99937.88
2023-03-13T03:03:31.453Z,99938.19
2023-03-13T03:06:18.270Z,99929.16
2023-03-13T03:09:06.290Z,99934.25
2023-03-13T03:11:55.464Z,99927.69
2023-03-13T03:14:42.627Z,99922.34
2023-03-13T03:17:30.833Z,99921.00
2023-03-13T03:20:17.509Z,99913.69
2023-03-13T03:23:04.357Z,99920.16
2023-03-13T03:25:52.161Z,99919.72
2023-03-13T03:28:39.008Z,99918.59
2023-03-13T03:31:31.523Z,99857.50
2023-03-13T03:34:19.846Z,99914.38
2023-03-13T03:37:07.171Z,99912.09
2023-03-13T03:39:53.936Z,99903.31
2023-03-13T03:42:40.606Z,99900.28
2023-03-13T03:45:27.263Z,99892.97
2023-03-13T03:48:14.266Z,99890.47
2023-03-13T03:51:02.333Z,99890.28
2023-03-13T03:53:50.984Z,99882.28
2023-03-13T03:56:37.903Z,99881.38
2023-03-13T03:59:25.253Z,99875.75
2023-03-13T04:02:17.764Z,99877.25
2023-03-13T04:05:05.428Z,99869.00
2023-03-13T04:07:56.041Z,99864.13
2023-03-13T04:10:42.728Z,99857.19
2023-03-13T04:13:29.497Z,99854.44
2023-03-13T04:16:18.330Z,99849.41
2023-03-13T04:19:07.546Z,99838.88
2023-03-13T04:21:55.275Z,99842.66
2023-03-13T04:24:43.422Z,99831.06
2023-03-13T04:27:30.384Z,99824.81
2023-03-13T04:30:18.727Z,99825.53
2023-03-13T04:33:27.129Z,99822.97
2023-03-13T04:36:43.030Z,99821.38
2023-03-13T04:40:03.775Z,99818.06
2023-03-13T04:43:13.816Z,99810.13
2023-03-13T04:46:20.335Z,99801.75
2023-03-13T04:49:10.080Z,99785.28
2023-03-13T04:52:28.317Z,99791.50
2023-03-13T04:55:40.597Z,99781.44
2023-03-13T04:58:47.033Z,99771.88
2023-03-13T05:01:47.356Z,99772.44
2023-03-13T05:04:54.205Z,99763.06
2023-03-13T05:07:50.521Z,99748.72
2023-03-13T05:11:10.550Z,99754.22
2023-03-13T05:14:19.530Z,99740.72
2023-03-13T05:17:32.361Z,99734.25
2023-03-13T05:20:38.089Z,99728.03
2023-03-13T05:23:31.542Z,99718.91
2023-03-13T05:26:38.445Z,99707.50
2023-03-13T05:29:54.145Z,99716.47
2023-03-13T05:33:06.925Z,99710.84
2023-03-13T05:36:11.845Z,99702.91
2023-03-13T05:39:05.755Z,99699.78
2023-03-13T05:42:02.737Z,99681.22
2023-03-13T05:45:10.058Z,99656.69
2023-03-13T05:48:15.614Z,99678.84
2023-03-13T05:51:21.289Z,99666.94
2023-03-13T05:54:18.808Z,99673.84
2023-03-13T05:57:25.745Z,99672.50
2023-03-13T06:00:38.753Z,99663.69
2023-03-13T06:04:01.210Z,99650.78
2023-03-13T06:06:49.780Z,99651.34
2023-03-13T06:09:38.154Z,99637.84
2023-03-13T06:12:26.390Z,99561.88
2023-03-13T06:15:13.402Z,99632.75
2023-03-13T06:18:19.186Z,99630.75
2023-03-13T06:21:06.229Z,99631.69
2023-03-13T06:23:52.887Z,99624.31
2023-03-13T06:26:39.638Z,99617.88
2023-03-13T06:29:28.305Z,99616.94
2023-03-13T06:32:15.033Z,99613.09
2023-03-13T06:35:01.693Z,99603.47
2023-03-13T06:37:48.396Z,99592.09
2023-03-13T06:40:35.236Z,99591.56
2023-03-13T06:43:22.583Z,99570.00
2023-03-13T06:46:18.448Z,99583.28
2023-03-13T06:49:06.210Z,99564.06
2023-03-13T06:51:52.753Z,99556.31
2023-03-13T06:54:39.721Z,99557.03
2023-03-13T06:57:26.523Z,99548.81
2023-03-13T07:00:14.121Z,99534.50
2023-03-13T07:03:02.020Z,99536.69
2023-03-13T07:05:48.920Z,99533.63
2023-03-13T07:08:37.015Z,99526.69
2023-03-13T07:11:23.801Z,99495.31
2023-03-13T07:14:16.960Z,99513.63
2023-03-13T07:17:04.116Z,99505.81
2023-03-13T07:19:52.399Z,99497.72
2023-03-13T07:22:39.446Z,99493.59
2023-03-13T07:25:26.745Z,99500.44
2023-03-13T07:28:13.542Z,99498.81
2023-03-13T07:31:08.454Z,99498.19
2023-03-13T07:33:56.635Z,99509.41
2023-03-13T07:36:44.509Z,99484.19
2023-03-13T07:39:31.321Z,99515.88
2023-03-13T07:42:18.089Z,99501.53
2023-03-13T07:45:06.513Z,99508.88
2023-03-13T07:47:53.258Z,99492.91
2023-03-13T07:50:40.169Z,99482.78
2023-03-13T07:53:30.902Z,99472.88
2023-03-13T07:56:19.275Z,99464.09
2023-03-13T07:59:05.678Z,99451.16
2023-03-13T08:01:52.479Z,99447.09
2023-03-13T08:04:39.150Z,99436.16
2023-03-13T08:07:25.705Z,99429.59
2023-03-13T08:10:14.142Z,99426.94
2023-03-13T08:13:00.877Z,99432.94
2023-03-13T08:15:47.582Z,99418.81
2023-03-13T08:18:35.844Z,99422.22
2023-03-13T08:21:25.457Z,99412.91
2023-03-13T08:24:13.381Z,99418.69
2023-03-13T08:27:01.582Z,99394.44
2023-03-13T08:29:48.406Z,99323.75
2023-03-13T08:32:35.357Z,99386.28
2023-03-13T08:35:22.558Z,99381.66
2023-03-13T08:38:09.361Z,99382.19
2023-03-13T08:40:58.310Z,99383.91
2023-03-13T08:43:46.935Z,99357.72
2023-03-13T08:46:35.818Z,99364.34
2023-03-13T08:49:22.645Z,99361.44
2023-03-13T08:52:09.653Z,99362.09
2023-03-13T08:54:56.260Z,99357.41
2023-03-13T08:57:43.070Z,99352.63
2023-03-13T09:00:31.334Z,99362.19
2023-03-13T09:03:18.644Z,99360.91
2023-03-13T09:06:05.934Z,99355.19
2023-03-13T09:08:52.992Z,99344.84
2023-03-13T09:11:40.460Z,99343.56
2023-03-13T09:14:27.410Z,99334.75
2023-03-13T09:17:15.353Z,99323.34
2023-03-13T09:20:02.177Z,99318.72
2023-03-13T09:22:49.042Z,99314.00
2023-03-13T09:25:35.752Z,99316.22
2023-03-13T09:28:22.888Z,99317.94
2023-03-13T09:31:10.450Z,99317.00
2023-03-13T09:33:58.504Z,99309.44
2023-03-13T09:36:45.234Z,99316.09
2023-03-13T09:39:32.299Z,99308.72
2023-03-13T09:42:21.777Z,99295.78
2023-03-13T09:45:14.789Z,99324.31
2023-03-13T09:48:06.833Z,99303.97
2023-03-13T09:51:02.818Z,99335.00
2023-03-13T09:53:54.625Z,99299.66
2023-03-13T09:56:46.653Z,99311.25
2023-03-13T09:59:43.686Z,99311.75
2023-03-13T10:02:35.121Z,99296.38
2023-03-13T10:05:24.238Z,99311.88
2023-03-13T10:08:17.330Z,99293.25
2023-03-13T10:11:08.008Z,99280.28
2023-03-13T10:14:00.889Z,99283.41
2023-03-13T10:16:56.398Z,99288.50
2023-03-13T10:19:44.660Z,99287.66
2023-03-13T10:22:32.976Z,99282.84
2023-03-13T10:25:29.759Z,99267.31
2023-03-13T10:28:19.415Z,99282.78
2023-03-13T10:31:13.475Z,99255.00
2023-03-13T10:34:07.980Z,99243.72
2023-03-13T10:37:00.459Z,99289.88
2023-03-13T10:39:46.803Z,99254.13
2023-03-13T10:42:39.343Z,99239.81
2023-03-13T10:45:26.427Z,99248.91
2023-03-13T10:48:15.392Z,99244.84
2023-03-13T10:51:02.575Z,99238.63
2023-03-13T10:53:51.568Z,99240.72
2023-03-13T10:56:38.141Z,99234.19
2023-03-13T10:59:28.073Z,99247.09
2023-03-13T11:02:23.799Z,99246.94
2023-03-13T11:05:36.153Z,99211.28
2023-03-13T11:08:27.388Z,99223.59
2023-03-13T11:11:19.607Z,99233.31
2023-03-13T11:14:13.878Z,99224.34
2023-03-13T11:17:10.987Z,99219.91
2023-03-13T11:20:09.402Z,99215.47
2023-03-13T11:23:14.620Z,99220.59
2023-03-13T11:26:07.742Z,99208.91
2023-03-13T11:28:59.627Z,99199.69
2023-03-13T11:31:50.412Z,99226.50
2023-03-13T11:34:46.230Z,99183.13
2023-03-13T11:37:34.862Z,99166.22
2023-03-13T11:40:28.253Z,99214.16
2023-03-13T11:43:28.522Z,99193.06
2023-03-13T11:46:24.314Z,99192.88
2023-03-13T11:49:34.070Z,99189.47
2023-03-13T11:52:33.226Z,99183.88
2023-03-13T11:55:33.440Z,99185.34
2023-03-13T11:58:33.243Z,99192.84
2023-03-13T12:01:21.854Z,99191.59
2023-03-13T12:04:18.668Z,99194.13
2023-03-13T12:07:11.560Z,99182.78
2023-03-13T12:10:03.421Z,99188.91
2023-03-13T12:12:57.409Z,99187.78
2023-03-13T12:15:48.000Z,99181.75
2023-03-13T12:18:38.567Z,99167.72
2023-03-13T12:21:32.281Z,99168.28
2023-03-13T12:24:27.645Z,99170.88
2023-03-13T12:27:21.150Z,99169.75
2023-03-13T12:30:16.561Z,99156.38
2023-03-13T12:33:14.632Z,99164.88
2023-03-13T12:36:09.241Z,99146.69
2023-03-13T12:39:00.024Z,99151.78
2023-03-13T12:41:52.447Z,99152.50
2023-03-13T12:44:41.201Z,99141.97
2023-03-13T12:47:33.063Z,99146.22
2023-03-13T12:50:29.812Z,99145.97
2023-03-13T12:53:39.923Z,99133.47
2023-03-13T12:56:38.679Z,99130.78
2023-03-13T12:59:29.963Z,99142.22
2023-03-13T13:02:21.559Z,99140.47
2023-03-13T13:05:19.138Z,99133.59
2023-03-13T13:08:06.343Z,99119.19
2023-03-13T13:10:53.032Z,99125.72
2023-03-13T13:13:41.135Z,99123.50
2023-03-13T13:16:28.871Z,99104.44
2023-03-13T13:19:48.522Z,99105.66
2023-03-13T13:22:52.858Z,99110.91
2023-03-13T13:25:39.708Z,99109.31
2023-03-13T13:28:36.635Z,99105.78
2023-03-13T13:31:59.566Z,99101.28
2023-03-13T13:35:03.004Z,99095.84
2023-03-13T13:37:50.307Z,99095.13
2023-03-13T13:40:37.274Z,99099.91
2023-03-13T13:43:25.518Z,99092.91
2023-03-13T13:46:24.913Z,99098.53
2023-03-13T13:49:19.525Z,99091.53
2023-03-13T13:52:33.488Z,99096.31
2023-03-13T13:55:41.922Z,99084.09
2023-03-13T13:58:32.476Z,99087.97
2023-03-13T14:01:19.590Z,99079.91
2023-03-13T14:04:15.743Z,99085.09
2023-03-13T14:07:07.139Z,99088.88
2023-03-13T14:10:12.430Z,99073.50
2023-03-13T14:13:00.575Z,99078.63
2023-03-13T14:15:49.014Z,99080.31
2023-03-13T14:18:44.937Z,99078.34
2023-03-13T14:21:33.233Z,99079.03
2023-03-13T14:24:25.111Z,99073.88
2023-03-13T14:27:22.722Z,99071.97
2023-03-13T14:30:13.413Z,99075.22
2023-03-13T14:33:09.500Z,99069.41
2023-03-13T14:36:12.208Z,99072.50
2023-03-13T14:39:17.184Z,99065.72
2023-03-13T14:42:11.090Z,99062.41
2023-03-13T14:45:00.256Z,99060.44
2023-03-13T14:47:49.920Z,99063.88
2023-03-13T14:50:37.854Z,99044.34
2023-03-13T14:53:27.306Z,99056.22
2023-03-13T14:56:29.955Z,99047.91
2023-03-13T14:59:35.873Z,99052.00
2023-03-13T15:05:50.305Z,99034.88
2023-03-13T15:08:59.492Z,99034.25
2023-03-13T15:12:03.846Z,99040.84
2023-03-13T15:14:58.214Z,99036.00
2023-03-13T15:18:21.698Z,99044.50
2023-03-13T15:21:31.529Z,99026.16
2023-03-13T15:24:24.852Z,99027.50
2023-03-13T15:27:28.312Z,99023.59
2023-03-13T15:30:19.652Z,99014.34
2023-03-13T15:33:22.389Z,99014.94
2023-03-13T15:36:16.759Z,99002.19
2023-03-13T15:39:12.634Z,99017.34
2023-03-13T15:42:19.602Z,99008.94
2023-03-13T15:45:21.853Z,99013.44
2023-03-13T15:48:23.644Z,99009.00
2023-03-13T15:51:18.043Z,99010.78
2023-03-13T15:54:10.172Z,98998.69
2023-03-13T15:57:09.555Z,98995.16
2023-03-13T16:00:02.432Z,98991.78
2023-03-13T16:03:02.087Z,98978.09
2023-03-13T16:06:04.837Z,98972.00
2023-03-13T16:09:11.221Z,98988.50
2023-03-13T16:12:15.128Z,98977.81
2023-03-13T16:15:11.234Z,98980.97
2023-03-13T16:18:21.182Z,98979.72
2023-03-13T16:21:24.485Z,98964.06
2023-03-13T16:24:28.716Z,98965.78
2023-03-13T16:27:26.210Z,98957.25
2023-03-13T16:30:33.686Z,98963.88
2023-03-13T16:33:46.194Z,98955.13
2023-03-13T16:36:44.692Z,98954.72
2023-03-13T16:39:35.387Z,98942.88
2023-03-13T16:42:30.350Z,98933.44
2023-03-13T16:45:26.428Z,98934.53
2023-03-13T16:48:35.304Z,98933.28
2023-03-13T16:51:37.539Z,98923.09
2023-03-13T16:54:37.093Z,98916.78
2023-03-13T16:57:47.923Z,98914.78
2023-03-13T17:01:04.370Z,98907.47
2023-03-13T17:04:03.745Z,98899.28
2023-03-13T17:07:00.755Z,98908.53
2023-03-13T17:09:56.162Z,98907.25
2023-03-13T17:12:48.300Z,98907.00
2023-03-13T17:15:52.373Z,98895.00
2023-03-13T17:18:43.428Z,98899.78
2023-03-13T17:21:55.464Z,98873.53
2023-03-13T17:24:44.791Z,98889.13
2023-03-13T17:27:36.389Z,98890.63
2023-03-13T17:30:26.891Z,98873.19
2023-03-13T17:33:15.379Z,98851.13
2023-03-13T17:36:05.497Z,98884.16
2023-03-13T17:38:56.778Z,98885.22
2023-03-13T17:41:44.928Z,98886.25
2023-03-13T17:44:35.802Z,98893.38
2023-03-13T17:47:26.513Z,98877.59
2023-03-13T17:50:20.785Z,98886.19
2023-03-13T17:53:10.189Z,98893.94
2023-03-13T17:56:01.989Z,98886.84
2023-03-13T17:59:02.180Z,98885.84
2023-03-13T18:02:06.909Z,98883.22
2023-03-13T18:05:04.719Z,98873.19
2023-03-13T18:08:11.415Z,98882.78
2023-03-13T18:11:07.851Z,98882.25
2023-03-13T18:14:22.000Z,98867.06
2023-03-13T18:17:23.326Z,98853.66
2023-03-13T18:20:20.832Z,98864.13
2023-03-13T18:23:11.173Z,98863.69
2023-03-13T18:26:02.696Z,98859.91
2023-03-13T18:28:59.961Z,98849.69
2023-03-13T18:32:07.766Z,98854.81
2023-03-13T18:35:06.799Z,98857.31
2023-03-13T18:37:59.331Z,98860.69
2023-03-13T18:40:51.241Z,98848.63
2023-03-13T18:43:44.309Z,98844.59
2023-03-13T18:46:39.164Z,98841.72
2023-03-13T18:49:31.782Z,98846.16
2023-03-13T18:52:23.845Z,98853.25
2023-03-13T18:55:12.582Z,98848.13
2023-03-13T18:58:00.646Z,98838.34
2023-03-13T19:00:49.266Z,98838.53
2023-03-13T19:03:37.961Z,98820.75
2023-03-13T19:06:29.062Z,98838.59
2023-03-13T19:09:42.264Z,98845.63
2023-03-13T19:12:32.445Z,98832.09
2023-03-13T19:15:25.765Z,98835.69
2023-03-13T19:18:14.354Z,98809.81
2023-03-13T19:21:03.104Z,98834.38
2023-03-13T19:23:53.386Z,98830.13
2023-03-13T19:26:45.331Z,98834.44
2023-03-13T19:29:37.629Z,98837.81
2023-03-13T19:32:26.219Z,98830.53
2023-03-13T19:35:19.268Z,98813.19
2023-03-13T19:38:06.605Z,98807.53
2023-03-13T19:40:53.519Z,98835.47
2023-03-13T19:43:43.088Z,98834.56
2023-03-13T19:46:31.121Z,98833.00
2023-03-13T19:49:20.330Z,98828.97
2023-03-13T19:52:08.463Z,98840.72
2023-03-13T19:54:56.293Z,98833.84
2023-03-13T19:57:43.345Z,98828.44
2023-03-13T20:00:31.370Z,98836.44
2023-03-13T20:03:18.229Z,98833.53
2023-03-13T20:06:05.448Z,98840.88
2023-03-13T20:08:55.534Z,98768.78
2023-03-13T20:11:42.308Z,98832.09
2023-03-13T20:14:30.631Z,98846.00
2023-03-13T20:17:18.519Z,98842.38
2023-03-13T20:20:08.543Z,98829.22
2023-03-13T20:22:57.196Z,98821.28
2023-03-13T20:25:46.098Z,98807.91
2023-03-13T20:28:32.924Z,98802.78
2023-03-13T20:31:22.047Z,98803.50
2023-03-13T20:34:10.043Z,98805.78
2023-03-13T20:36:57.279Z,98807.22
2023-03-13T20:39:43.856Z,98796.78
2023-03-13T20:42:30.603Z,98802.06
2023-03-13T20:45:17.576Z,98792.88
2023-03-13T20:48:04.009Z,98775.75
2023-03-13T20:50:53.705Z,98767.34
2023-03-13T20:53:41.763Z,98765.91
2023-03-13T20:56:28.612Z,98777.50
2023-03-13T20:59:15.283Z,98765.22
2023-03-13T21:02:02.375Z,98773.59
2023-03-13T21:04:49.249Z,98769.97
2023-03-13T21:07:37.375Z,98777.78
2023-03-13T21:10:24.125Z,98779.78
2023-03-13T21:13:11.851Z,98783.69
2023-03-13T21:16:04.500Z,98775.50
2023-03-13T21:18:51.962Z,98770.41
2023-03-13T21:21:38.764Z,98782.41
2023-03-13T21:24:26.962Z,98774.53
2023-03-13T21:27:14.361Z,98760.06
2023-03-13T21:30:01.055Z,98769.44
2023-03-13T21:32:49.017Z,98766.44
2023-03-13T21:35:35.907Z,98765.78
2023-03-13T21:38:23.166Z,98772.81
2023-03-13T21:41:12.889Z,98802.53
2023-03-13T21:43:59.569Z,98794.59
2023-03-13T21:46:48.817Z,98799.69
2023-03-13T21:49:35.682Z,98796.44
2023-03-13T21:52:23.455Z,98796.72
2023-03-13T21:55:13.145Z,98789.22
2023-03-13T21:58:01.161Z,98784.34
2023-03-13T22:00:47.918Z,98786.47
2023-03-13T22:03:34.717Z,98774.78
2023-03-13T22:06:23.506Z,98773.94
2023-03-13T22:09:10.014Z,98763.53
2023-03-13T22:11:56.641Z,98772.13
2023-03-13T22:14:44.874Z,98772.72
2023-03-13T22:17:31.637Z,98764.91
2023-03-13T22:20:18.564Z,98768.09
2023-03-13T22:23:04.945Z,98767.84
2023-03-13T22:25:51.800Z,98773.06
2023-03-13T22:28:38.713Z,98770.03
2023-03-13T22:31:26.513Z,98761.78
2023-03-13T22:34:13.369Z,98766.41
2023-03-13T22:37:00.345Z,98755.22
2023-03-13T22:39:46.801Z,98751.34
2023-03-13T22:42:33.636Z,98759.25
2023-03-13T22:45:20.934Z,98760.22
2023-03-13T22:48:09.181Z,98762.03
2023-03-13T22:51:03.281Z,98766.06
2023-03-13T22:53:49.928Z,98748.00
2023-03-13T22:56:36.888Z,98741.34
2023-03-13T22:59:23.354Z,98750.31
2023-03-13T23:02:10.140Z,98749.22
2023-03-13T23:05:01.293Z,98732.78
2023-03-13T23:07:50.393Z,98736.44
2023-03-13T23:10:37.200Z,98738.63
2023-03-13T23:13:23.547Z,98745.16
2023-03-13T23:16:12.199Z,98745.06
2023-03-13T23:18:58.856Z,98740.31
2023-03-13T23:21:46.951Z,98754.28
2023-03-13T23:24:33.595Z,98746.53
2023-03-13T23:27:20.380Z,98751.97
2023-03-13T23:30:09.799Z,98737.63
2023-03-13T23:32:56.570Z,98714.97
2023-03-13T23:35:44.071Z,98714.41
2023-03-13T23:38:32.168Z,98711.16
2023-03-13T23:41:19.952Z,98705.22
2023-03-13T23:44:10.130Z,98725.13
2023-03-13T23:47:00.704Z,98723.16
2023-03-13T23:49:48.956Z,98712.88
2023-03-13T23:52:36.251Z,98706.72
2023-03-13T23:55:25.479Z,98714.22
2023-03-13T23:58:12.395Z,98710.81
